Time;durP1;ratioP1;P1;durP2;ratioP2;P2;SDS_P1;SDS_P2;PMS_P1;PMS_P2;Temp;Humidity;BMP_temperature;BMP_pressure;BME280_temperature;BME280_humidity;BME280_pressure;Samples;Min_cycle;Max_cycle;Signal;HPM_P1;HPM_P2
2023/09/26 00:00:29;;;;;;;7.18;5.20;;;;;;;13.32;94.02;102114.25;4939479;28;20035;-83
2023/09/26 00:02:54;;;;;;;7.70;5.35;;;;;;;13.32;93.56;102108.19;4947003;28;20122;-83
2023/09/26 00:05:22;;;;;;;8.63;5.63;;;;;;;13.30;93.39;102105.56;4946934;29;20114;-82
2023/09/26 00:07:49;;;;;;;6.57;5.15;;;;;;;13.28;93.40;102104.72;4942953;29;20035;-82
2023/09/26 00:10:15;;;;;;;6.53;5.13;;;;;;;13.27;93.39;102099.53;4942250;28;20032;-82
2023/09/26 00:12:41;;;;;;;7.82;5.40;;;;;;;13.24;93.03;102096.97;4940171;29;20055;-82
2023/09/26 00:15:07;;;;;;;9.77;5.35;;;;;;;13.21;92.85;102090.06;4946332;29;20074;-82
2023/09/26 00:17:33;;;;;;;7.63;4.97;;;;;;;13.19;92.80;102087.47;4948631;28;20166;-83
2023/09/26 00:19:58;;;;;;;7.57;5.53;;;;;;;13.16;92.92;102092.72;4944975;29;20040;-83
2023/09/26 00:22:24;;;;;;;7.85;5.40;;;;;;;13.15;93.10;102092.78;4953217;28;20085;-82
2023/09/26 00:24:51;;;;;;;8.25;4.88;;;;;;;13.13;92.55;102098.03;4952875;29;20407;-82
2023/09/26 00:27:17;;;;;;;6.18;4.97;;;;;;;13.10;92.80;102090.25;4940065;28;20032;-83
2023/09/26 00:29:43;;;;;;;6.28;4.85;;;;;;;13.09;93.35;102096.34;4942669;29;20034;-82
2023/09/26 00:32:09;;;;;;;6.45;5.28;;;;;;;13.06;92.97;102099.00;4944661;28;20036;-82
2023/09/26 00:34:34;;;;;;;7.07;5.18;;;;;;;13.05;93.57;102099.88;4953206;29;20143;-82
2023/09/26 00:37:00;;;;;;;6.32;4.43;;;;;;;13.05;93.24;102095.53;4943168;28;20031;-82
2023/09/26 00:39:25;;;;;;;6.25;4.47;;;;;;;13.02;92.50;102095.59;4951044;29;20031;-82
2023/09/26 00:41:50;;;;;;;7.15;5.10;;;;;;;12.98;92.32;102098.28;4953477;29;20026;-82
2023/09/26 00:44:16;;;;;;;6.13;4.60;;;;;;;12.95;92.51;102095.72;4951071;29;20414;-82
2023/09/26 00:46:41;;;;;;;6.60;4.78;;;;;;;12.91;92.04;102094.88;4946696;29;20038;-85
2023/09/26 00:49:07;;;;;;;7.63;5.05;;;;;;;12.87;92.28;102091.44;4943174;28;20154;-82
2023/09/26 00:51:33;;;;;;;7.22;5.35;;;;;;;12.86;92.76;102094.09;4947319;28;20389;-82
2023/09/26 00:53:59;;;;;;;6.70;4.90;;;;;;;12.84;92.79;102086.28;4952414;28;20027;-82
2023/09/26 00:56:25;;;;;;;6.20;4.43;;;;;;;12.82;92.14;102093.25;4954676;28;20042;-82
2023/09/26 00:58:51;;;;;;;7.20;5.00;;;;;;;12.80;91.95;102095.06;4939945;29;20034;-82
2023/09/26 01:01:21;;;;;;;7.00;4.82;;;;;;;12.78;92.77;102096.81;4938367;28;20028;-82
2023/09/26 01:03:46;;;;;;;7.03;4.88;;;;;;;12.79;92.44;102098.56;4937355;29;20035;-82
2023/09/26 01:06:11;;;;;;;7.07;5.20;;;;;;;12.79;92.82;102090.72;4955312;29;20039;-82
2023/09/26 01:08:37;;;;;;;9.68;5.25;;;;;;;12.78;92.40;102082.88;4952660;29;20031;-82
2023/09/26 01:11:03;;;;;;;7.43;4.82;;;;;;;12.76;91.94;102080.31;4954621;29;20031;-82
2023/09/26 01:13:28;;;;;;;6.57;5.20;;;;;;;12.74;92.13;102079.47;4956262;28;20031;-82
2023/09/26 01:15:53;;;;;;;7.15;5.05;;;;;;;12.72;92.12;102071.66;4938267;28;20031;-82
2023/09/26 01:18:23;;;;;;;8.18;5.07;;;;;;;12.70;91.87;102072.56;4949412;29;20111;-82
2023/09/26 01:20:49;;;;;;;6.50;5.07;;;;;;;12.70;91.70;102072.56;4955209;29;20047;-83
2023/09/26 01:23:15;;;;;;;7.32;4.60;;;;;;;12.68;91.74;102079.56;4955568;28;20538;-82
2023/09/26 01:25:42;;;;;;;6.57;5.15;;;;;;;12.67;92.27;102077.81;4955970;28;20031;-82
2023/09/26 01:28:08;;;;;;;7.60;5.20;;;;;;;12.65;91.69;102070.03;4956247;28;20031;-82
2023/09/26 01:30:34;;;;;;;10.98;5.18;;;;;;;12.64;91.77;102073.53;4954008;28;20102;-82
2023/09/26 01:33:00;;;;;;;6.18;4.93;;;;;;;12.63;91.72;102070.94;4953061;29;20419;-82
2023/09/26 01:35:26;;;;;;;6.45;5.07;;;;;;;12.62;92.27;102069.22;4940394;29;20047;-82
2023/09/26 01:37:51;;;;;;;6.43;4.88;;;;;;;12.63;92.31;102073.56;4935693;29;20079;-82
2023/09/26 01:40:16;;;;;;;7.35;5.30;;;;;;;12.64;92.59;102067.44;4939498;29;20031;-82
2023/09/26 01:42:42;;;;;;;5.72;4.65;;;;;;;12.65;92.33;102084.81;4949284;28;20034;-82
2023/09/26 01:45:09;;;;;;;6.43;4.82;;;;;;;12.63;92.00;102084.00;4952475;28;20451;-82
2023/09/26 01:47:45;;;;;;;8.02;5.00;;;;;;;12.61;91.68;102081.38;4953945;29;20106;-82
2023/09/26 01:50:10;;;;;;;6.63;5.30;;;;;;;12.58;91.87;102084.91;4955939;28;20506;-82
2023/09/26 01:52:36;;;;;;;7.28;5.28;;;;;;;12.57;92.45;102079.69;4954208;28;20059;-82
2023/09/26 01:55:05;;;;;;;6.32;4.90;;;;;;;12.55;92.75;102082.34;4955085;28;20027;-82
2023/09/26 01:57:34;;;;;;;7.15;4.72;;;;;;;12.54;92.56;102074.56;4951665;28;20084;-82
2023/09/26 02:00:10;;;;;;;6.78;5.03;;;;;;;12.52;92.22;102069.34;4944735;29;20031;-82
2023/09/26 02:02:50;;;;;;;8.13;5.30;;;;;;;12.50;91.94;102073.72;4954972;28;20122;-82
2023/09/26 02:05:17;;;;;;;7.32;5.45;;;;;;;12.47;92.01;102071.13;4950324;28;20023;-82
2023/09/26 02:07:43;;;;;;;8.15;5.82;;;;;;;12.45;92.01;102070.31;4936578;29;20082;-82
2023/09/26 02:10:09;;;;;;;8.15;5.55;;;;;;;12.41;92.68;102060.81;4948896;29;20030;-82
2023/09/26 02:12:37;;;;;;;7.47;5.38;;;;;;;12.39;92.54;102062.56;4955534;28;20027;-82
2023/09/26 02:15:05;;;;;;;7.25;5.28;;;;;;;12.39;92.33;102067.78;4950721;28;20467;-82
2023/09/26 02:17:33;;;;;;;6.40;4.80;;;;;;;12.37;92.25;102060.00;4936868;29;20032;-82
2023/09/26 02:19:59;;;;;;;6.78;5.22;;;;;;;12.35;92.29;102056.53;4946602;29;20042;-82
2023/09/26 02:22:25;;;;;;;8.90;5.30;;;;;;;12.34;92.22;102062.63;4945911;28;20483;-82
2023/09/26 02:24:53;;;;;;;8.60;5.47;;;;;;;12.33;92.35;102057.41;4953866;29;20031;-82
2023/09/26 02:27:18;;;;;;;8.43;5.35;;;;;;;12.30;92.27;102061.78;4942840;29;20136;-82
2023/09/26 02:29:44;;;;;;;8.18;5.47;;;;;;;12.28;92.14;102058.38;4945945;29;20110;-82
2023/09/26 02:32:10;;;;;;;8.05;5.38;;;;;;;12.26;92.17;102054.91;4951970;29;20027;-82
2023/09/26 02:34:35;;;;;;;8.13;5.40;;;;;;;12.24;92.79;102054.06;4954685;28;20406;-82
2023/09/26 02:37:00;;;;;;;7.13;5.15;;;;;;;12.24;92.94;102054.06;4951652;29;20054;-82
2023/09/26 02:39:25;;;;;;;7.75;5.18;;;;;;;12.24;92.49;102054.06;4944197;29;20407;-82
2023/09/26 02:41:51;;;;;;;7.63;5.50;;;;;;;12.22;92.81;102053.22;4948339;29;20077;-82
2023/09/26 02:44:16;;;;;;;8.18;4.97;;;;;;;12.23;92.32;102054.06;4943007;28;20042;-82
2023/09/26 02:46:41;;;;;;;6.93;5.47;;;;;;;12.20;93.06;102060.19;4946242;29;20050;-82
2023/09/26 02:49:06;;;;;;;8.02;5.38;;;;;;;12.21;93.17;102054.09;4950403;29;20068;-82
2023/09/26 02:51:32;;;;;;;6.88;4.88;;;;;;;12.22;93.16;102053.22;4948993;29;20027;-82
2023/09/26 02:53:57;;;;;;;8.43;5.50;;;;;;;12.21;92.48;102048.88;4940593;29;20446;-82
2023/09/26 02:56:22;;;;;;;6.55;5.13;;;;;;;12.19;92.41;102040.22;4937102;29;20035;-82
2023/09/26 02:58:47;;;;;;;8.70;5.47;;;;;;;12.15;93.03;102033.28;4951860;29;20023;-82
2023/09/26 03:01:17;;;;;;;6.60;5.05;;;;;;;12.15;92.96;102030.69;4942267;29;20023;-82
2023/09/26 03:03:42;;;;;;;6.80;5.10;;;;;;;12.14;92.61;102027.22;4951095;29;20046;-82
2023/09/26 03:06:07;;;;;;;6.75;5.00;;;;;;;12.11;92.64;102022.06;4937611;29;20151;-82
2023/09/26 03:08:33;;;;;;;7.25;5.07;;;;;;;12.10;92.39;102024.69;4948377;29;20035;-82
2023/09/26 03:11:01;;;;;;;7.00;5.20;;;;;;;12.07;93.11;102019.50;4947238;28;20102;-82
2023/09/26 03:13:33;;;;;;;8.57;5.32;;;;;;;12.06;93.50;102017.78;4954055;28;20075;-82
2023/09/26 03:15:59;;;;;;;8.13;5.38;;;;;;;12.06;93.53;102012.56;4951993;29;20546;-82
2023/09/26 03:18:25;;;;;;;6.40;4.97;;;;;;;12.05;93.16;102011.69;4953537;28;20030;-82
2023/09/26 03:20:50;;;;;;;7.63;4.93;;;;;;;12.04;93.03;102011.72;4954272;28;20046;-82
2023/09/26 03:23:15;;;;;;;8.05;5.20;;;;;;;12.02;92.90;102005.66;4952878;28;20114;-82
2023/09/26 03:25:41;;;;;;;7.90;5.05;;;;;;;12.01;92.86;102003.94;4953401;29;20082;-82
2023/09/26 03:28:06;;;;;;;6.50;5.22;;;;;;;12.01;92.84;102009.16;4948372;29;20475;-82
2023/09/26 03:30:31;;;;;;;6.68;5.32;;;;;;;12.00;93.41;102008.28;4950053;28;20094;-83
2023/09/26 03:32:56;;;;;;;7.28;5.50;;;;;;;11.99;93.32;102012.63;4948323;28;20427;-82
2023/09/26 03:35:22;;;;;;;9.43;5.90;;;;;;;11.97;93.76;102009.16;4934883;29;20075;-83
2023/09/26 03:37:47;;;;;;;8.35;5.03;;;;;;;11.97;93.44;102003.09;4934915;29;20419;-82
2023/09/26 03:40:12;;;;;;;8.20;5.20;;;;;;;11.95;93.24;102000.50;4942998;29;20045;-82
2023/09/26 03:42:38;;;;;;;6.93;5.30;;;;;;;11.94;93.50;102001.38;4946569;28;20025;-83
2023/09/26 03:45:04;;;;;;;7.00;5.25;;;;;;;11.94;94.00;102006.59;4952776;29;20475;-82
2023/09/26 03:47:29;;;;;;;7.75;5.30;;;;;;;11.94;94.08;102018.75;4949998;28;20368;-82
2023/09/26 03:49:55;;;;;;;8.13;5.22;;;;;;;11.94;93.89;102017.03;4941271;29;20090;-82
2023/09/26 03:52:20;;;;;;;7.72;5.28;;;;;;;11.94;93.58;102014.44;4953153;28;20027;-82
2023/09/26 03:54:45;;;;;;;7.57;4.90;;;;;;;11.93;93.05;102011.81;4953600;29;20027;-82
2023/09/26 03:57:10;;;;;;;6.78;5.22;;;;;;;11.88;93.21;102014.50;4945812;29;20031;-82
2023/09/26 03:59:36;;;;;;;8.95;5.30;;;;;;;11.85;93.21;102014.53;4953611;29;20027;-82
2023/09/26 04:02:01;;;;;;;6.93;5.53;;;;;;;11.82;93.21;102009.34;4950628;29;20055;-82
2023/09/26 04:04:26;;;;;;;9.38;5.57;;;;;;;11.79;93.04;102009.38;4953581;29;20074;-82
2023/09/26 04:06:51;;;;;;;8.63;5.25;;;;;;;11.75;93.04;102005.09;4953675;29;20027;-82
2023/09/26 04:09:17;;;;;;;7.30;5.65;;;;;;;11.73;93.78;102006.84;4936509;29;20035;-82
2023/09/26 04:11:43;;;;;;;7.40;5.38;;;;;;;11.74;93.45;102005.97;4937633;29;20028;-82
2023/09/26 04:14:08;;;;;;;7.63;5.18;;;;;;;11.72;93.72;102007.72;4935404;29;20166;-82
2023/09/26 04:16:33;;;;;;;8.18;5.15;;;;;;;11.71;93.73;101995.56;4934541;29;20027;-82
2023/09/26 04:18:58;;;;;;;6.72;5.03;;;;;;;11.69;93.55;101995.59;4934582;29;20039;-82
2023/09/26 04:21:24;;;;;;;7.93;5.40;;;;;;;11.68;93.60;102001.69;4946394;29;20386;-82
2023/09/26 04:23:49;;;;;;;7.13;5.55;;;;;;;11.65;93.95;102015.63;4954688;28;20031;-83
2023/09/26 04:26:15;;;;;;;8.88;5.45;;;;;;;11.61;94.33;102011.34;4952232;29;20039;-82
2023/09/26 04:28:45;;;;;;;7.95;5.30;;;;;;;11.62;94.47;102012.19;4938317;29;20066;-82
2023/09/26 04:31:17;;;;;;;8.15;4.95;;;;;;;11.60;93.81;102009.63;4948031;29;20463;-82
2023/09/26 04:33:44;;;;;;;6.38;4.82;;;;;;;11.57;93.66;102009.63;4957186;28;20063;-82
2023/09/26 04:36:09;;;;;;;7.47;5.38;;;;;;;11.54;93.83;102004.47;4954679;28;20032;-82
2023/09/26 04:38:35;;;;;;;7.43;5.35;;;;;;;11.52;93.63;102004.50;4952850;29;20034;-82
2023/09/26 04:41:02;;;;;;;6.57;5.22;;;;;;;11.50;93.80;101994.94;4953518;28;20032;-82
2023/09/26 04:43:28;;;;;;;7.43;5.22;;;;;;;11.49;93.83;101991.47;4952642;28;20132;-82
2023/09/26 04:45:53;;;;;;;10.02;5.60;;;;;;;11.50;94.01;101981.91;4939129;28;20028;-82
2023/09/26 04:48:19;;;;;;;7.07;5.07;;;;;;;11.50;94.33;101981.91;4949346;29;20073;-82
2023/09/26 04:50:44;;;;;;;7.20;5.32;;;;;;;11.50;94.48;101981.91;4956001;29;20031;-82
2023/09/26 04:53:09;;;;;;;8.65;5.43;;;;;;;11.50;94.12;101993.22;4946253;29;20031;-82
2023/09/26 04:55:36;;;;;;;7.65;5.40;;;;;;;11.49;94.03;101986.28;4954229;29;20023;-82
2023/09/26 04:58:01;;;;;;;8.00;5.28;;;;;;;11.50;94.08;101981.91;4951852;28;20046;-82
2023/09/26 05:00:28;;;;;;;8.93;5.57;;;;;;;11.49;94.42;101986.28;4938383;29;20040;-83
2023/09/26 05:02:53;;;;;;;8.60;5.57;;;;;;;11.51;94.94;101986.25;4940937;29;20063;-82
2023/09/26 05:05:19;;;;;;;6.57;5.57;;;;;;;11.51;95.01;101987.13;4944499;29;20028;-82
2023/09/26 05:07:45;;;;;;;7.10;5.20;;;;;;;11.51;95.08;101979.31;4953546;28;20038;-82
2023/09/26 05:10:13;;;;;;;10.05;5.28;;;;;;;11.52;95.13;101974.94;4946658;29;20098;-82
2023/09/26 05:12:40;;;;;;;9.32;5.60;;;;;;;11.53;94.97;101971.44;4955675;28;20500;-82
2023/09/26 05:15:10;;;;;;;8.48;5.25;;;;;;;11.53;95.17;101968.84;4970510;28;20027;-82
2023/09/26 05:17:36;;;;;;;8.25;5.25;;;;;;;11.53;95.23;101964.47;4941490;29;20062;-82
2023/09/26 05:20:02;;;;;;;8.98;5.20;;;;;;;11.54;95.00;101967.97;4945695;29;20027;-82
2023/09/26 05:22:27;;;;;;;7.50;5.25;;;;;;;11.53;95.02;101971.44;4948418;28;20031;-83
2023/09/26 05:24:52;;;;;;;8.40;5.30;;;;;;;11.53;95.46;101977.50;4949614;29;20382;-82
2023/09/26 05:27:18;;;;;;;9.73;5.82;;;;;;;11.53;95.73;101972.31;4946605;29;20075;-82
2023/09/26 05:29:43;;;;;;;6.60;5.15;;;;;;;11.55;96.30;101972.31;4951524;29;20041;-82
2023/09/26 05:32:08;;;;;;;9.45;5.32;;;;;;;11.57;95.90;101977.47;4949028;29;20035;-82
2023/09/26 05:34:35;;;;;;;8.48;5.28;;;;;;;11.56;95.49;101976.63;4944065;29;20155;-83
2023/09/26 05:37:00;;;;;;;7.75;5.28;;;;;;;11.56;96.02;101976.63;4945060;29;20486;-82
2023/09/26 05:39:25;;;;;;;8.57;5.68;;;;;;;11.59;96.38;101986.16;4946305;29;20032;-82
2023/09/26 05:41:51;;;;;;;7.68;5.60;;;;;;;11.60;96.76;101980.06;4939944;29;20547;-82
2023/09/26 05:44:17;;;;;;;7.80;5.25;;;;;;;11.62;96.70;101979.16;4951849;28;20037;-82
2023/09/26 05:46:43;;;;;;;7.65;5.15;;;;;;;11.65;96.42;101975.66;4953813;28;20562;-82
2023/09/26 05:49:08;;;;;;;6.30;5.00;;;;;;;11.66;96.34;101962.59;4947136;29;20031;-82
2023/09/26 05:51:34;;;;;;;7.50;5.10;;;;;;;11.68;96.15;101970.41;4955880;29;20381;-82
2023/09/26 05:53:59;;;;;;;9.02;5.45;;;;;;;11.68;96.01;101976.47;4946284;29;20031;-82
2023/09/26 05:56:24;;;;;;;8.93;5.53;;;;;;;11.69;96.35;101983.41;4944888;29;20032;-82
2023/09/26 05:58:49;;;;;;;7.78;5.47;;;;;;;11.72;96.74;101981.66;4947033;29;20391;-82
2023/09/26 06:01:15;;;;;;;7.85;5.30;;;;;;;11.74;97.26;101990.34;4951315;28;20069;-82
2023/09/26 06:03:40;;;;;;;9.57;5.28;;;;;;;11.77;97.45;101995.53;4952298;29;20398;-82
2023/09/26 06:06:06;;;;;;;6.50;4.97;;;;;;;11.80;97.65;101993.72;4953712;29;20039;-82
2023/09/26 06:08:31;;;;;;;7.72;5.13;;;;;;;11.85;97.32;101998.88;4954002;29;20031;-82
2023/09/26 06:10:56;;;;;;;8.68;5.20;;;;;;;11.89;97.60;101995.34;4937842;29;20032;-82
2023/09/26 06:13:22;;;;;;;7.45;5.03;;;;;;;11.94;97.55;101998.78;4937303;29;20075;-82
2023/09/26 06:15:47;;;;;;;7.00;5.05;;;;;;;11.97;97.12;101998.72;4947405;29;20066;-82
2023/09/26 06:18:12;;;;;;;6.97;4.85;;;;;;;12.01;96.83;101993.50;4945531;29;20078;-82
2023/09/26 06:20:40;;;;;;;9.13;5.18;;;;;;;12.06;97.12;101994.31;4939464;29;20023;-82
2023/09/26 06:23:05;;;;;;;6.32;4.53;;;;;;;12.10;97.36;101993.38;4950068;28;20035;-82
2023/09/26 06:25:30;;;;;;;8.85;4.97;;;;;;;12.13;97.37;101994.19;4947403;29;20398;-82
2023/09/26 06:27:56;;;;;;;7.00;5.00;;;;;;;12.18;97.60;101986.31;4948994;29;20655;-82
2023/09/26 06:30:21;;;;;;;5.88;5.00;;;;;;;12.22;97.77;101981.91;4949092;29;20047;-82
2023/09/26 06:32:46;;;;;;;6.60;4.80;;;;;;;12.25;97.87;101981.84;4952591;28;20514;-82
2023/09/26 06:35:12;;;;;;;6.72;4.68;;;;;;;12.30;97.92;101986.13;4950839;28;20098;-82
2023/09/26 06:37:37;;;;;;;6.43;4.75;;;;;;;12.35;97.85;101979.97;4953266;29;20074;-82
2023/09/26 06:40:06;;;;;;;8.40;4.90;;;;;;;12.40;97.81;101991.22;4942898;29;20111;-82
2023/09/26 06:42:32;;;;;;;5.97;4.75;;;;;;;12.44;97.87;101977.25;4951630;28;20050;-82
2023/09/26 06:44:58;;;;;;;9.68;5.15;;;;;;;12.47;97.79;101969.34;4945699;28;20042;-82
2023/09/26 06:47:26;;;;;;;8.80;4.75;;;;;;;12.53;97.62;101971.03;4949758;28;20023;-82
2023/09/26 06:49:53;;;;;;;6.28;5.07;;;;;;;12.56;97.50;101971.81;4949918;28;20106;-82
2023/09/26 06:52:19;;;;;;;6.90;5.45;;;;;;;12.59;97.63;101971.78;4951022;28;20035;-82
2023/09/26 06:54:44;;;;;;;7.18;5.15;;;;;;;12.63;97.61;101976.97;4946072;29;20439;-82
2023/09/26 06:57:09;;;;;;;5.78;4.72;;;;;;;12.67;97.71;101973.38;4949164;29;20066;-82
2023/09/26 06:59:38;;;;;;;6.50;5.00;;;;;;;12.72;97.93;101976.78;4950287;29;20031;-82
2023/09/26 07:02:03;;;;;;;8.45;4.90;;;;;;;12.76;97.71;101978.47;4947227;28;20078;-82
2023/09/26 07:04:29;;;;;;;8.77;5.35;;;;;;;12.80;98.37;101979.28;4945091;29;20443;-82
2023/09/26 07:06:54;;;;;;;7.63;5.45;;;;;;;12.84;98.17;101984.41;4951370;29;20041;-82
2023/09/26 07:09:20;;;;;;;8.90;5.63;;;;;;;12.90;98.29;101986.94;4945777;28;20447;-82
2023/09/26 07:11:47;;;;;;;7.10;5.18;;;;;;;12.94;98.32;101987.75;4941704;29;20538;-82
2023/09/26 07:14:12;;;;;;;7.95;5.53;;;;;;;13.00;97.88;101986.75;4948670;28;20386;-82
2023/09/26 07:16:37;;;;;;;7.28;5.28;;;;;;;13.05;98.33;101985.81;4951708;29;20106;-82
2023/09/26 07:19:03;;;;;;;10.18;5.03;;;;;;;13.11;98.02;101981.34;4935067;29;20183;-82
2023/09/26 07:21:28;;;;;;;6.68;5.03;;;;;;;13.15;98.35;101986.50;4947136;29;20022;-82
2023/09/26 07:23:53;;;;;;;7.55;5.38;;;;;;;13.21;97.85;101990.75;4938866;29;20099;-82
2023/09/26 07:26:20;;;;;;;7.82;5.03;;;;;;;13.26;97.66;101985.44;4948059;29;20435;-82
2023/09/26 07:28:47;;;;;;;7.15;4.93;;;;;;;13.31;97.62;101987.06;4948992;28;20031;-82
2023/09/26 07:31:14;;;;;;;7.45;5.47;;;;;;;13.38;98.38;101985.22;4942320;28;20373;-82
2023/09/26 07:33:40;;;;;;;7.35;5.22;;;;;;;13.44;97.66;101982.53;4939043;29;20114;-82
2023/09/26 07:36:06;;;;;;;7.97;5.13;;;;;;;13.49;97.43;101985.03;4935905;28;20103;-82
2023/09/26 07:38:32;;;;;;;7.93;4.97;;;;;;;13.55;97.19;101984.03;4939611;29;20035;-82
2023/09/26 07:40:58;;;;;;;7.72;5.10;;;;;;;13.60;97.20;101972.59;4952196;28;20023;-82
2023/09/26 07:43:29;;;;;;;6.95;4.75;;;;;;;13.66;96.63;101977.72;4951600;28;20127;-82
2023/09/26 07:45:57;;;;;;;8.00;5.40;;;;;;;13.72;96.89;101976.72;4951577;29;20035;-82
2023/09/26 07:48:23;;;;;;;8.02;5.32;;;;;;;13.79;96.37;101982.69;4946839;29;20295;-82
2023/09/26 07:50:49;;;;;;;7.00;5.35;;;;;;;13.87;96.80;101987.75;4942884;28;20169;-82
2023/09/26 07:53:14;;;;;;;6.75;5.43;;;;;;;13.93;96.43;101985.88;4940628;28;20455;-82
2023/09/26 07:55:40;;;;;;;7.93;4.95;;;;;;;13.98;96.05;101990.16;4947964;28;20070;-82
2023/09/26 07:58:05;;;;;;;6.55;4.82;;;;;;;14.03;96.40;101993.53;4943493;28;20239;-82
2023/09/26 08:00:31;;;;;;;9.13;5.45;;;;;;;14.07;95.61;101985.56;4941879;29;20027;-82
2023/09/26 08:02:56;;;;;;;8.88;5.13;;;;;;;14.15;95.79;101976.72;4943375;28;20471;-82
2023/09/26 08:05:22;;;;;;;7.90;4.97;;;;;;;14.21;95.73;101964.34;4947064;29;20027;-82
2023/09/26 08:07:48;;;;;;;6.57;5.00;;;;;;;14.27;95.81;101964.19;4941722;28;20020;-83
2023/09/26 08:10:13;;;;;;;7.32;5.15;;;;;;;14.36;95.33;101972.72;4941477;29;20031;-82
2023/09/26 08:12:39;;;;;;;8.88;5.18;;;;;;;14.44;95.17;101976.00;4939120;29;20042;-82
2023/09/26 08:15:05;;;;;;;7.57;5.05;;;;;;;14.51;94.81;101976.75;4944774;29;20035;-82
2023/09/26 08:17:30;;;;;;;6.82;5.20;;;;;;;14.59;94.27;101985.25;4942430;28;20030;-82
2023/09/26 08:19:55;;;;;;;9.45;5.30;;;;;;;14.64;92.80;101986.03;4944744;29;20145;-83
2023/09/26 08:22:21;;;;;;;7.07;5.10;;;;;;;14.70;93.61;101980.66;4942477;28;20046;-82
2023/09/26 08:24:47;;;;;;;7.55;5.07;;;;;;;14.76;94.16;101971.81;4942129;29;20039;-82
2023/09/26 08:27:12;;;;;;;6.63;5.13;;;;;;;14.83;94.20;101969.88;4945365;28;20036;-82
2023/09/26 08:29:38;;;;;;;8.75;5.25;;;;;;;14.89;93.97;101964.47;4942717;29;20396;-82
2023/09/26 08:32:03;;;;;;;6.88;4.97;;;;;;;14.94;93.39;101959.13;4946219;29;20486;-82
2023/09/26 08:34:28;;;;;;;7.80;5.43;;;;;;;14.97;92.78;101946.78;4941436;28;20043;-81
2023/09/26 08:36:54;;;;;;;7.53;5.32;;;;;;;15.03;93.95;101944.00;4951203;29;20027;-81
2023/09/26 08:39:19;;;;;;;7.85;5.70;;;;;;;15.08;93.42;101946.50;4946778;29;20046;-82
2023/09/26 08:41:45;;;;;;;8.02;5.63;;;;;;;15.13;93.52;101938.50;4941854;29;20031;-82
2023/09/26 08:44:11;;;;;;;7.97;5.13;;;;;;;15.19;93.76;101954.09;4936728;28;20035;-82
2023/09/26 08:46:39;;;;;;;9.43;5.97;;;;;;;15.26;93.18;101947.75;4942890;29;20114;-82
2023/09/26 08:49:05;;;;;;;9.05;5.75;;;;;;;15.31;92.49;101948.50;4949782;28;21460;-81
2023/09/26 08:51:30;;;;;;;7.95;5.78;;;;;;;15.38;92.35;101938.69;4946811;29;20078;-82
2023/09/26 08:53:55;;;;;;;6.47;5.28;;;;;;;15.45;92.16;101944.63;4951393;28;20031;-82
2023/09/26 08:56:21;;;;;;;7.68;5.60;;;;;;;15.51;90.84;101952.31;4944400;29;20027;-82
2023/09/26 08:58:49;;;;;;;8.65;6.03;;;;;;;15.58;90.48;101951.22;4943272;28;20105;-82
2023/09/26 09:01:16;;;;;;;7.07;5.35;;;;;;;15.67;92.19;101949.25;4945172;29;20492;-81
2023/09/26 09:03:41;;;;;;;8.30;5.57;;;;;;;15.75;91.17;101948.13;4946491;28;20464;-85
2023/09/26 09:06:06;;;;;;;7.35;5.32;;;;;;;15.83;90.14;101942.63;4941409;29;20039;-82
2023/09/26 09:08:32;;;;;;;9.20;5.38;;;;;;;15.90;88.60;101945.97;4934293;29;20032;-83
2023/09/26 09:10:57;;;;;;;9.20;5.68;;;;;;;15.99;89.30;101944.81;4954492;29;20055;-83
2023/09/26 09:13:35;;;;;;;8.23;5.78;;;;;;;16.08;88.70;101939.28;4955356;28;20023;-82
2023/09/26 09:16:14;;;;;;;7.57;5.15;;;;;;;16.15;87.77;101945.19;4952537;28;20210;-82
2023/09/26 09:18:46;;;;;;;8.13;5.13;;;;;;;16.22;88.18;101942.34;4942129;29;20483;-82
2023/09/26 09:21:32;;;;;;;7.45;5.25;;;;;;;16.32;88.59;101935.00;4943812;28;20031;-82
2023/09/26 09:24:00;;;;;;;7.13;5.15;;;;;;;16.41;87.86;101938.25;4948157;29;20423;-82
2023/09/26 09:26:30;;;;;;;6.82;5.10;;;;;;;16.48;87.68;101942.41;4953351;29;20650;-82
2023/09/26 09:28:58;;;;;;;6.93;4.95;;;;;;;16.53;85.66;101946.59;4955000;28;20026;-82
2023/09/26 09:31:26;;;;;;;7.60;4.90;;;;;;;16.61;86.04;101938.47;4970354;28;20027;-82
2023/09/26 09:33:52;;;;;;;6.15;4.95;;;;;;;16.67;84.91;101942.66;4947782;28;20157;-82
2023/09/26 09:36:18;;;;;;;6.40;4.78;;;;;;;16.73;83.64;101942.44;4938293;29;20031;-82
2023/09/26 09:38:44;;;;;;;7.10;5.10;;;;;;;16.78;83.15;101940.50;4937058;29;20038;-82
2023/09/26 09:41:09;;;;;;;7.85;4.80;;;;;;;16.88;82.46;101948.09;4945142;29;20027;-82
2023/09/26 09:43:36;;;;;;;7.95;4.68;;;;;;;16.95;82.44;101946.97;4944598;29;20465;-82
2023/09/26 09:46:08;;;;;;;6.80;5.00;;;;;;;17.03;81.83;101939.69;4952898;28;20031;-82
2023/09/26 09:48:41;;;;;;;;;;;;;;;17.10;85.31;101925.41;4944738;28;20390;-82
2023/09/26 09:51:09;;;;;;;6.50;4.45;;;;;;;17.18;81.15;101929.53;4937662;29;20009;-82
2023/09/26 09:53:35;;;;;;;6.53;4.30;;;;;;;17.25;79.63;101928.41;4952756;29;20078;-82
2023/09/26 09:56:04;;;;;;;8.85;4.85;;;;;;;17.32;80.10;101927.25;4949974;28;20024;-82
2023/09/26 09:58:32;;;;;;;6.55;4.55;;;;;;;17.37;78.45;101917.44;4943002;28;20066;-82
2023/09/26 10:00:59;;;;;;;7.25;4.60;;;;;;;17.45;79.43;101915.34;4936895;29;20074;-83
2023/09/26 10:03:25;;;;;;;6.72;4.88;;;;;;;17.53;79.15;101906.31;4947913;28;20061;-83
2023/09/26 10:05:52;;;;;;;6.93;4.40;;;;;;;17.60;78.32;101910.41;4959711;28;20113;-85
2023/09/26 10:08:19;;;;;;;5.72;4.30;;;;;;;17.66;77.92;101920.72;4945443;29;20039;-83
2023/09/26 10:10:45;;;;;;;7.70;4.68;;;;;;;17.71;77.58;101910.88;4942913;29;20031;-82
2023/09/26 10:13:11;;;;;;;5.55;4.13;;;;;;;17.78;76.59;101905.34;4947078;28;20490;-83
2023/09/26 10:16:03;;;;;;;4.70;3.65;;;;;;;17.87;79.41;101905.84;4945494;29;20093;-82
2023/09/26 10:18:28;;;;;;;7.30;3.97;;;;;;;17.91;76.63;101917.16;4946901;28;20038;-82
2023/09/26 10:20:53;;;;;;;5.50;3.97;;;;;;;17.95;76.37;101910.81;4938305;28;20019;-82
2023/09/26 10:23:19;;;;;;;5.60;3.85;;;;;;;18.00;75.99;101915.97;4947572;28;20086;-82
2023/09/26 10:25:44;;;;;;;5.85;3.88;;;;;;;18.04;75.46;101921.03;4948933;29;20023;-82
2023/09/26 10:28:10;;;;;;;6.75;3.97;;;;;;;18.09;75.28;101917.38;4948665;29;20423;-82
2023/09/26 10:30:46;;;;;;;5.80;3.75;;;;;;;18.14;76.32;101918.00;4941757;29;20027;-82
2023/09/26 10:33:12;;;;;;;5.25;3.83;;;;;;;18.17;73.96;101916.13;4940838;29;20038;-83
2023/09/26 10:35:44;;;;;;;5.90;3.75;;;;;;;18.20;73.60;101917.78;4948622;28;20129;-82
2023/09/26 10:38:18;;;;;;;5.40;3.97;;;;;;;18.24;73.48;101916.75;4942313;29;20391;-81
2023/09/26 10:40:45;;;;;;;7.43;3.85;;;;;;;18.27;73.88;101919.25;4944579;29;20147;-82
2023/09/26 10:43:10;;;;;;;5.82;3.90;;;;;;;18.29;74.34;101912.13;4948516;28;20364;-82
2023/09/26 10:45:35;;;;;;;8.32;3.92;;;;;;;18.32;73.09;101906.72;4941979;29;20443;-82
2023/09/26 10:48:05;;;;;;;5.05;3.55;;;;;;;18.35;73.40;101903.97;4942833;29;20036;-85
2023/09/26 10:50:32;;;;;;;5.00;3.58;;;;;;;18.38;74.49;101907.41;4946153;29;20081;-82
2023/09/26 10:52:57;;;;;;;5.50;3.63;;;;;;;18.39;73.75;101906.47;4939700;28;20030;-81
2023/09/26 10:55:22;;;;;;;5.45;4.10;;;;;;;18.41;74.35;101904.66;4942256;29;20122;-83
2023/09/26 10:57:53;;;;;;;5.40;3.88;;;;;;;18.43;73.61;101897.53;4942168;29;20029;-82
2023/09/26 11:00:18;;;;;;;6.10;3.92;;;;;;;18.45;73.95;101903.56;4944019;29;20162;-83
2023/09/26 11:02:47;;;;;;;5.63;3.67;;;;;;;18.47;73.17;101905.25;4946865;28;20039;-83
2023/09/26 11:05:15;;;;;;;5.72;3.83;;;;;;;18.52;76.35;101910.31;4948955;29;20494;-82
2023/09/26 11:07:42;;;;;;;6.28;3.80;;;;;;;18.58;77.21;101907.41;4942344;29;20035;-82
2023/09/26 11:10:14;;;;;;;5.45;3.60;;;;;;;18.64;74.96;101893.97;4947542;29;20158;-82
2023/09/26 11:12:40;;;;;;;5.50;3.53;;;;;;;18.68;72.72;101881.53;4949817;28;20038;-82
2023/09/26 11:15:07;;;;;;;5.65;3.38;;;;;;;18.74;74.30;101886.50;4948507;29;20028;-80
2023/09/26 11:17:33;;;;;;;5.38;2.80;;;;;;;18.78;71.06;101895.16;4940954;29;20030;-83
2023/09/26 11:19:59;;;;;;;4.10;2.60;;;;;;;18.82;70.36;101904.63;4945168;29;20174;-81